• Join FlightAware (Why Join?)
  • Login
  • US Flag 
11:05PM EDT


 

Airport Tracker/Info


-or-


 

Live Flight TrackerFlight Track Log ✈ ERR781 ✈ 01-Nov-2013 ✈ PAFA / FAI - PANC

Flight Track Log - Related Links

Times and Time Zones

All times are in EDT time to prevent confusion due to time zone crossing. See the ERR781 flight status page for this flight to view local times or setup timezone preferences in your user account.

Time Position Orientation Groundspeed Altitude Reporting Facility
EDT Latitude Longitude Course Direction KTS MPH feet Rate Location/Type
08:57PM 64.7667 -147.9500 218° Southwest 130 150 3,700  Level Anchorage Center
08:58PM 64.7500 -148.0500 249° West 160 184 5,100 1,500 Climbing Anchorage Center
08:59PM 64.7333 -148.1333 245° Southwest 160 184 6,700 1,500 Climbing Anchorage Center
09:00PM 64.6833 -148.2000 210° Southwest 160 184 8,200 1,620 Climbing Anchorage Center
09:01PM 64.4633 -148.0890 216° Southwest  Level Estimated
09:01PM 64.6500 -148.2500 213° Southwest 160 184 10,000  Level Anchorage Center
09:02PM 64.4046 -148.1272 218° Southwest  Level Estimated
09:02PM 64.6167 -148.3167 221° Southwest 160 184 11,400  Level Anchorage Center
09:03PM 64.5833 -148.3500 203° Southwest 180 207 12,800 1,440 Climbing Anchorage Center
09:04PM 64.5333 -148.3833 196° South 180 207 14,300 1,500 Climbing Anchorage Center
09:05PM 64.4833 -148.4167 196° South 180 207 15,800 1,320 Climbing Anchorage Center
09:06PM 64.4333 -148.4500 196° South 180 207 17,000 1,140 Climbing Anchorage Center
09:07PM 64.3833 -148.5000 203° Southwest 190 219 18,100 1,140 Climbing Anchorage Center
09:08PM 64.3333 -148.5333 196° South 190 219 19,300 1,140 Climbing Anchorage Center
09:09PM 64.2833 -148.5833 203° Southwest 190 219 20,400 840 Climbing Anchorage Center
09:10PM 64.2333 -148.6167 196° South 190 219 21,000 300 Climbing Anchorage Center
09:11PM 64.1667 -148.6667 198° South 230 265 21,000  Level Anchorage Center
09:12PM 64.1000 -148.7167 198° South 240 276 21,000  Level Anchorage Center
09:13PM 64.0500 -148.7667 204° Southwest 250 288 21,000  Level Anchorage Center
09:14PM 63.9833 -148.8167 198° South 250 288 21,000  Level Anchorage Center
09:15PM 63.9167 -148.8667 198° South 250 288 21,000  Level Anchorage Center
09:16PM 63.8500 -148.9167 198° South 250 288 21,000  Level Anchorage Center
09:17PM 63.7833 -148.9833 204° Southwest 260 299 21,000  Level Anchorage Center
09:18PM 63.7167 -149.0167 192° South 250 288 21,000  Level Anchorage Center
09:19PM 63.6333 -149.0667 195° South 260 299 21,000  Level Anchorage Center
09:20PM 63.5667 -149.1167 198° South 250 288 21,000  Level Anchorage Center
09:21PM 63.5000 -149.1667 199° South 260 299 21,000  Level Anchorage Center
09:22PM 63.4333 -149.2333 204° Southwest 260 299 21,000  Level Anchorage Center
09:23PM 63.3667 -149.2833 199° South 240 276 21,000  Level Anchorage Center
09:24PM 63.3000 -149.3333 199° South 260 299 21,000  Level Anchorage Center
09:25PM 63.2333 -149.3667 193° South 260 299 21,000  Level Anchorage Center
09:26PM 63.1667 -149.4167 199° South 250 288 21,000  Level Anchorage Center
09:27PM 63.1000 -149.4833 204° Southwest 250 288 21,000  Level Anchorage Center
09:28PM 63.0333 -149.5167 193° South 250 288 21,000  Level Anchorage Center
09:29PM 62.9667 -149.5667 199° South 250 288 21,000  Level Anchorage Center
09:30PM 62.9000 -149.6167 199° South 250 288 21,000  Level Anchorage Center
09:31PM 62.8333 -149.6500 193° South 240 276 21,000  Level Anchorage Center
09:32PM 62.7667 -149.7167 205° Southwest 260 299 21,000  Level Anchorage Center
09:33PM 62.7000 -149.7667 199° South 240 276 21,000  Level Anchorage Center
09:34PM 62.6333 -149.8167 199° South 260 299 21,000  Level Anchorage Center
09:35PM 62.5500 -149.8500 190° South 260 299 21,000  Level Anchorage Center
09:36PM 62.4833 -149.9000 199° South 260 299 21,000  Level Anchorage Center
09:37PM 62.4167 -149.9500 199° South 250 288 21,000  Level Anchorage Center
09:38PM 62.3500 -150.0000 199° South 250 288 21,000  Level Anchorage Center
09:39PM 62.2833 -150.0333 193° South 250 288 21,000 -600 Level Anchorage Center
09:40PM 62.2000 -150.0833 196° South 260 299 19,900 -1,200 Descending Anchorage Center
09:41PM 62.1500 -150.1333 205° Southwest 260 299 18,700 -1,200 Descending Anchorage Center
09:42PM 62.0833 -150.1833 199° South 260 299 17,500 -1,320 Descending Anchorage Center
09:43PM 62.0000 -150.2333 196° South 260 299 16,100 -1,380 Descending Anchorage Center
09:44PM 61.9333 -150.2667 193° South 260 299 14,800 -1,320 Descending Anchorage Center
09:46PM 61.8247 -150.3504 198° South  Level FlightAware Approximate
09:53PM 61.4196 -150.2321 157° South  Level FlightAware Approximate
09:54PM 61.3631 -150.1797 154° Southeast  Level FlightAware Approximate
09:55PM 61.3113 -150.1124 159° South  Level FlightAware Approximate
09:56PM 61.2536 -150.0662 159° South  Level FlightAware Approximate
09:57PM 61.1972 -150.0138 154° Southeast  Level FlightAware Approximate
09:58PM 61.1741 -149.9982 154° Southeast  Level Estimated
09:59PM 61.1741 -149.9982 154° Southeast  Level Estimated
10:00PM 61.1741 -149.9982 154° Southeast  Level Estimated
10:01PM 61.1741 -149.9982 154° Southeast  Level Estimated
10:02PM 61.1741 -149.9982 154° Southeast  Level Estimated
10:03PM 61.1741 -149.9982 154° Southeast  Level Estimated
10:04PM 61.1741 -149.9982 154° Southeast  Level Estimated
10:05PM 61.1741 -149.9982 154° Southeast  Level Estimated
10:06PM 61.1741 -149.9982 154° Southeast  Level Estimated
10:07PM 61.1741 -149.9982 154° Southeast  Level Estimated
10:08PM 61.1741 -149.9982 154° Southeast  Level Estimated
10:09PM 61.1741 -149.9982 154° Southeast  Level Estimated
10:10PM 61.1741 -149.9982 154° Southeast  Level Estimated
10:11PM 61.1741 -149.9982 154° Southeast  Level Estimated
10:12PM 61.1741 -149.9982 154° Southeast  Level Estimated
10:13PM 61.1741 -149.9982 154° Southeast  Level Estimated
10:14PM 61.1741 -149.9982 154° Southeast  Level Estimated